sensor_id;sensor_type;location;lat;lon;timestamp;pressure;altitude;pressure_sealevel;temperature;humidity
9325;BME280;4701;51.566;6.776;2023-02-20T07:02:46;102025.28;;;5.13;100.00
9325;BME280;4701;51.566;6.776;2023-02-20T07:04:48;102028.25;;;5.18;100.00
9325;BME280;4701;51.566;6.776;2023-02-20T07:06:51;102024.53;;;5.25;100.00
9325;BME280;4701;51.566;6.776;2023-02-20T07:08:52;102038.47;;;5.29;100.00
9325;BME280;4701;51.566;6.776;2023-02-20T07:10:54;102039.50;;;5.28;100.00
9325;BME280;4701;51.566;6.776;2023-02-20T07:12:56;102036.41;;;5.31;100.00
9325;BME280;4701;51.566;6.776;2023-02-20T07:14:58;102037.28;;;5.45;100.00
9325;BME280;4701;51.566;6.776;2023-02-20T07:17:00;102046.03;;;5.47;100.00
9325;BME280;4701;51.566;6.776;2023-02-20T07:19:03;102047.53;;;5.49;100.00
9325;BME280;4701;51.566;6.776;2023-02-20T07:21:05;102030.91;;;5.52;100.00
9325;BME280;4701;51.566;6.776;2023-02-20T07:23:07;102024.84;;;5.50;100.00
9325;BME280;4701;51.566;6.776;2023-02-20T07:25:09;102024.44;;;5.53;100.00
9325;BME280;4701;51.566;6.776;2023-02-20T07:27:11;102015.09;;;5.56;100.00
9325;BME280;4701;51.566;6.776;2023-02-20T07:29:13;102022.16;;;5.57;100.00
9325;BME280;4701;51.566;6.776;2023-02-20T07:31:15;102026.94;;;5.55;100.00
9325;BME280;4701;51.566;6.776;2023-02-20T07:33:17;102025.72;;;5.57;100.00
9325;BME280;4701;51.566;6.776;2023-02-20T07:35:21;102042.97;;;5.56;100.00
9325;BME280;4701;51.566;6.776;2023-02-20T07:37:22;102029.25;;;5.58;100.00
9325;BME280;4701;51.566;6.776;2023-02-20T07:39:24;102030.75;;;5.67;100.00
9325;BME280;4701;51.566;6.776;2023-02-20T07:41:28;102029.06;;;5.59;100.00
9325;BME280;4701;51.566;6.776;2023-02-20T07:43:31;102024.50;;;5.66;100.00
9325;BME280;4701;51.566;6.776;2023-02-20T07:45:33;102023.03;;;5.70;100.00
9325;BME280;4701;51.566;6.776;2023-02-20T07:47:35;102038.88;;;5.80;100.00
9325;BME280;4701;51.566;6.776;2023-02-20T07:49:37;102035.59;;;5.85;100.00
9325;BME280;4701;51.566;6.776;2023-02-20T07:51:40;102023.31;;;5.89;100.00
9325;BME280;4701;51.566;6.776;2023-02-20T07:53:46;102038.72;;;5.88;100.00
9325;BME280;4701;51.566;6.776;2023-02-20T07:55:48;102031.44;;;5.89;100.00
9325;BME280;4701;51.566;6.776;2023-02-20T07:57:50;102024.81;;;5.98;100.00
9325;BME280;4701;51.566;6.776;2023-02-20T07:59:53;102028.34;;;5.98;100.00
9325;BME280;4701;51.566;6.776;2023-02-20T08:01:55;102035.00;;;5.96;100.00
9325;BME280;4701;51.566;6.776;2023-02-20T08:03:57;102030.41;;;5.96;100.00
9325;BME280;4701;51.566;6.776;2023-02-20T08:05:59;102024.16;;;5.96;100.00
9325;BME280;4701;51.566;6.776;2023-02-20T08:08:02;102014.41;;;6.01;100.00
9325;BME280;4701;51.566;6.776;2023-02-20T08:10:04;102017.97;;;5.95;100.00
9325;BME280;4701;51.566;6.776;2023-02-20T08:12:06;102041.06;;;6.04;100.00
9325;BME280;4701;51.566;6.776;2023-02-20T08:14:08;102040.84;;;6.06;100.00
9325;BME280;4701;51.566;6.776;2023-02-20T08:16:10;102028.38;;;6.12;100.00
9325;BME280;4701;51.566;6.776;2023-02-20T08:18:12;102026.72;;;6.11;100.00
9325;BME280;4701;51.566;6.776;2023-02-20T08:20:16;102042.13;;;6.10;100.00
9325;BME280;4701;51.566;6.776;2023-02-20T08:22:18;102036.72;;;6.10;100.00
9325;BME280;4701;51.566;6.776;2023-02-20T08:24:21;102025.03;;;6.03;100.00
9325;BME280;4701;51.566;6.776;2023-02-20T08:26:23;102025.69;;;6.12;100.00
9325;BME280;4701;51.566;6.776;2023-02-20T08:28:25;102031.31;;;6.10;100.00
9325;BME280;4701;51.566;6.776;2023-02-20T08:30:27;102033.56;;;6.13;100.00
9325;BME280;4701;51.566;6.776;2023-02-20T08:32:29;102034.44;;;6.20;100.00
9325;BME280;4701;51.566;6.776;2023-02-20T08:34:30;102013.19;;;6.24;100.00
9325;BME280;4701;51.566;6.776;2023-02-20T08:36:32;102016.72;;;6.24;100.00
9325;BME280;4701;51.566;6.776;2023-02-20T08:38:36;102016.31;;;6.21;100.00
9325;BME280;4701;51.566;6.776;2023-02-20T08:40:40;102021.09;;;6.25;100.00
9325;BME280;4701;51.566;6.776;2023-02-20T08:42:41;102022.53;;;6.21;100.00
9325;BME280;4701;51.566;6.776;2023-02-20T08:44:43;102022.56;;;6.28;100.00
9325;BME280;4701;51.566;6.776;2023-02-20T08:46:46;102019.44;;;6.24;100.00
9325;BME280;4701;51.566;6.776;2023-02-20T08:48:48;102007.38;;;6.33;100.00
9325;BME280;4701;51.566;6.776;2023-02-20T08:50:50;102017.34;;;6.39;100.00
9325;BME280;4701;51.566;6.776;2023-02-20T08:52:52;102021.34;;;6.37;100.00
9325;BME280;4701;51.566;6.776;2023-02-20T08:54:54;102016.31;;;6.34;100.00
9325;BME280;4701;51.566;6.776;2023-02-20T08:56:57;102014.44;;;6.34;100.00
9325;BME280;4701;51.566;6.776;2023-02-20T08:58:58;102008.63;;;6.37;100.00
9325;BME280;4701;51.566;6.776;2023-02-20T09:01:00;102015.91;;;6.43;100.00
9325;BME280;4701;51.566;6.776;2023-02-20T09:03:03;102026.75;;;6.43;100.00
9325;BME280;4701;51.566;6.776;2023-02-20T09:05:07;102026.53;;;6.45;100.00
9325;BME280;4701;51.566;6.776;2023-02-20T09:07:09;102014.88;;;6.51;100.00
9325;BME280;4701;51.566;6.776;2023-02-20T09:09:11;102023.63;;;6.53;100.00
9325;BME280;4701;51.566;6.776;2023-02-20T09:11:13;102016.34;;;6.54;100.00
9325;BME280;4701;51.566;6.776;2023-02-20T09:13:17;102025.91;;;6.50;100.00
9325;BME280;4701;51.566;6.776;2023-02-20T09:15:18;102034.44;;;6.46;100.00
9325;BME280;4701;51.566;6.776;2023-02-20T09:17:20;102010.28;;;6.52;100.00
9325;BME280;4701;51.566;6.776;2023-02-20T09:19:22;102021.13;;;6.52;100.00
9325;BME280;4701;51.566;6.776;2023-02-20T09:21:24;102020.47;;;6.50;100.00
9325;BME280;4701;51.566;6.776;2023-02-20T09:23:28;102020.28;;;6.51;100.00
9325;BME280;4701;51.566;6.776;2023-02-20T09:25:29;102019.25;;;6.52;100.00
9325;BME280;4701;51.566;6.776;2023-02-20T09:27:31;102020.91;;;6.53;100.00
9325;BME280;4701;51.566;6.776;2023-02-20T09:29:35;102013.41;;;6.62;100.00
9325;BME280;4701;51.566;6.776;2023-02-20T09:31:40;102018.63;;;6.63;100.00
9325;BME280;4701;51.566;6.776;2023-02-20T09:33:43;102010.50;;;6.63;100.00
9325;BME280;4701;51.566;6.776;2023-02-20T09:35:45;102010.91;;;6.60;100.00
9325;BME280;4701;51.566;6.776;2023-02-20T09:37:48;102020.06;;;6.66;100.00
9325;BME280;4701;51.566;6.776;2023-02-20T09:39:50;102010.50;;;6.63;100.00
9325;BME280;4701;51.566;6.776;2023-02-20T09:42:04;102004.66;;;6.60;100.00
9325;BME280;4701;51.566;6.776;2023-02-20T09:44:13;101995.69;;;6.66;100.00
9325;BME280;4701;51.566;6.776;2023-02-20T09:46:19;102002.38;;;6.63;100.00
9325;BME280;4701;51.566;6.776;2023-02-20T09:48:31;102007.56;;;6.71;100.00
9325;BME280;4701;51.566;6.776;2023-02-20T09:50:43;101998.81;;;6.69;100.00
9325;BME280;4701;51.566;6.776;2023-02-20T09:52:53;101998.59;;;6.71;100.00
9325;BME280;4701;51.566;6.776;2023-02-20T09:55:02;101997.13;;;6.75;100.00
9325;BME280;4701;51.566;6.776;2023-02-20T09:57:09;102007.13;;;6.81;100.00
9325;BME280;4701;51.566;6.776;2023-02-20T09:59:15;102005.03;;;6.83;100.00
9325;BME280;4701;51.566;6.776;2023-02-20T10:01:21;102006.69;;;6.84;100.00
9325;BME280;4701;51.566;6.776;2023-02-20T10:03:28;101996.91;;;6.83;100.00
9325;BME280;4701;51.566;6.776;2023-02-20T10:05:35;101998.56;;;6.91;100.00
9325;BME280;4701;51.566;6.776;2023-02-20T10:07:38;102000.63;;;6.95;100.00
9325;BME280;4701;51.566;6.776;2023-02-20T10:09:41;101992.31;;;6.97;100.00
9325;BME280;4701;51.566;6.776;2023-02-20T10:11:59;101988.69;;;7.09;100.00
9325;BME280;4701;51.566;6.776;2023-02-20T10:14:15;101982.03;;;7.12;100.00
9325;BME280;4701;51.566;6.776;2023-02-20T10:16:31;101973.47;;;7.08;100.00
9325;BME280;4701;51.566;6.776;2023-02-20T10:18:43;101999.75;;;7.08;100.00
9325;BME280;4701;51.566;6.776;2023-02-20T10:20:54;101979.75;;;7.09;100.00
9325;BME280;4701;51.566;6.776;2023-02-20T10:23:02;101993.25;;;7.15;100.00
9325;BME280;4701;51.566;6.776;2023-02-20T10:25:10;101983.84;;;7.25;100.00
9325;BME280;4701;51.566;6.776;2023-02-20T10:27:24;101984.44;;;7.33;100.00
9325;BME280;4701;51.566;6.776;2023-02-20T10:29:29;101987.38;;;7.32;100.00
9325;BME280;4701;51.566;6.776;2023-02-20T10:31:39;101980.50;;;7.29;100.00
9325;BME280;4701;51.566;6.776;2023-02-20T10:33:44;101983.25;;;7.22;100.00
9325;BME280;4701;51.566;6.776;2023-02-20T10:35:50;101988.03;;;7.27;100.00
9325;BME280;4701;51.566;6.776;2023-02-20T10:37:55;101971.94;;;7.32;100.00
9325;BME280;4701;51.566;6.776;2023-02-20T10:40:04;101971.09;;;7.38;100.00
9325;BME280;4701;51.566;6.776;2023-02-20T10:42:12;101976.72;;;7.37;100.00
9325;BME280;4701;51.566;6.776;2023-02-20T10:44:19;101975.25;;;7.34;100.00
9325;BME280;4701;51.566;6.776;2023-02-20T10:46:29;101966.06;;;7.35;100.00
9325;BME280;4701;51.566;6.776;2023-02-20T10:48:39;101962.13;;;7.38;100.00
9325;BME280;4701;51.566;6.776;2023-02-20T10:51:01;101968.38;;;7.32;100.00
9325;BME280;4701;51.566;6.776;2023-02-20T10:53:43;101947.31;;;7.34;100.00
9325;BME280;4701;51.566;6.776;2023-02-20T10:56:07;101967.34;;;7.33;100.00
9325;BME280;4701;51.566;6.776;2023-02-20T10:58:38;101947.75;;;7.31;100.00
9325;BME280;4701;51.566;6.776;2023-02-20T11:00:46;101950.63;;;7.36;100.00
9325;BME280;4701;51.566;6.776;2023-02-20T11:02:54;101946.00;;;7.43;100.00
9325;BME280;4701;51.566;6.776;2023-02-20T11:05:02;101949.34;;;7.45;100.00
9325;BME280;4701;51.566;6.776;2023-02-20T11:07:09;101953.97;;;7.38;100.00
9325;BME280;4701;51.566;6.776;2023-02-20T11:09:13;101979.00;;;7.33;100.00
9325;BME280;4701;51.566;6.776;2023-02-20T11:11:21;101984.19;;;7.41;100.00
9325;BME280;4701;51.566;6.776;2023-02-20T11:13:24;101976.50;;;7.38;100.00
9325;BME280;4701;51.566;6.776;2023-02-20T11:15:29;101978.19;;;7.33;100.00
9325;BME280;4701;51.566;6.776;2023-02-20T11:17:33;101980.47;;;7.36;100.00
9325;BME280;4701;51.566;6.776;2023-02-20T11:19:40;101973.16;;;7.36;100.00
9325;BME280;4701;51.566;6.776;2023-02-20T11:21:46;101994.25;;;7.34;100.00
9325;BME280;4701;51.566;6.776;2023-02-20T11:23:48;101972.53;;;7.34;100.00
9325;BME280;4701;51.566;6.776;2023-02-20T11:25:50;101954.59;;;7.33;100.00
9325;BME280;4701;51.566;6.776;2023-02-20T11:27:55;101979.22;;;7.38;100.00
9325;BME280;4701;51.566;6.776;2023-02-20T11:30:00;101958.31;;;7.45;100.00
9325;BME280;4701;51.566;6.776;2023-02-20T11:32:28;101978.78;;;7.41;100.00
9325;BME280;4701;51.566;6.776;2023-02-20T11:34:31;101977.72;;;7.42;100.00
9325;BME280;4701;51.566;6.776;2023-02-20T11:36:36;101951.00;;;7.46;100.00
9325;BME280;4701;51.566;6.776;2023-02-20T11:38:41;101967.09;;;7.41;100.00
9325;BME280;4701;51.566;6.776;2023-02-20T11:40:46;101969.31;;;7.57;100.00
9325;BME280;4701;51.566;6.776;2023-02-20T11:42:49;101976.63;;;7.50;100.00
9325;BME280;4701;51.566;6.776;2023-02-20T11:45:11;101959.97;;;7.46;100.00
9325;BME280;4701;51.566;6.776;2023-02-20T11:47:25;101986.69;;;7.43;100.00
9325;BME280;4701;51.566;6.776;2023-02-20T11:49:28;101985.03;;;7.42;100.00
9325;BME280;4701;51.566;6.776;2023-02-20T11:51:36;101977.47;;;7.50;100.00
9325;BME280;4701;51.566;6.776;2023-02-20T11:53:38;101969.78;;;7.47;100.00
9325;BME280;4701;51.566;6.776;2023-02-20T11:55:41;101986.28;;;7.46;100.00
9325;BME280;4701;51.566;6.776;2023-02-20T11:57:43;101979.34;;;7.50;100.00
9325;BME280;4701;51.566;6.776;2023-02-20T11:59:47;101979.78;;;7.53;100.00
9325;BME280;4701;51.566;6.776;2023-02-20T12:01:49;101951.00;;;7.46;100.00
9325;BME280;4701;51.566;6.776;2023-02-20T12:03:53;101950.19;;;7.45;100.00
9325;BME280;4701;51.566;6.776;2023-02-20T12:05:57;101982.31;;;7.42;100.00
9325;BME280;4701;51.566;6.776;2023-02-20T12:07:59;101993.16;;;7.48;100.00
9325;BME280;4701;51.566;6.776;2023-02-20T12:10:04;101973.56;;;7.46;100.00
9325;BME280;4701;51.566;6.776;2023-02-20T12:12:13;101939.53;;;7.44;100.00
9325;BME280;4701;51.566;6.776;2023-02-20T12:14:15;101936.25;;;7.35;100.00
9325;BME280;4701;51.566;6.776;2023-02-20T12:16:34;101940.59;;;7.43;100.00
9325;BME280;4701;51.566;6.776;2023-02-20T12:18:45;101956.84;;;7.43;100.00
9325;BME280;4701;51.566;6.776;2023-02-20T12:20:54;101942.03;;;7.45;100.00
9325;BME280;4701;51.566;6.776;2023-02-20T12:23:03;101924.50;;;7.48;100.00
9325;BME280;4701;51.566;6.776;2023-02-20T12:25:20;101925.56;;;7.47;100.00
9325;BME280;4701;51.566;6.776;2023-02-20T12:29:52;101913.25;;;7.44;100.00
9325;BME280;4701;51.566;6.776;2023-02-20T12:32:05;101907.59;;;7.46;100.00
9325;BME280;4701;51.566;6.776;2023-02-20T12:34:19;101918.84;;;7.49;100.00
9325;BME280;4701;51.566;6.776;2023-02-20T12:36:27;101909.44;;;7.52;100.00
9325;BME280;4701;51.566;6.776;2023-02-20T12:38:38;101909.06;;;7.48;100.00
9325;BME280;4701;51.566;6.776;2023-02-20T12:40:57;101921.53;;;7.56;100.00
9325;BME280;4701;51.566;6.776;2023-02-20T12:43:17;101904.63;;;7.54;100.00
9325;BME280;4701;51.566;6.776;2023-02-20T12:45:29;101878.81;;;7.45;100.00
9325;BME280;4701;51.566;6.776;2023-02-20T12:47:39;101880.53;;;7.39;100.00
9325;BME280;4701;51.566;6.776;2023-02-20T12:49:54;101865.25;;;7.45;100.00
9325;BME280;4701;51.566;6.776;2023-02-20T12:52:04;101857.69;;;7.53;100.00
9325;BME280;4701;51.566;6.776;2023-02-20T12:54:24;101866.88;;;7.52;100.00
9325;BME280;4701;51.566;6.776;2023-02-20T12:56:39;101851.78;;;7.63;100.00
9325;BME280;4701;51.566;6.776;2023-02-20T12:58:52;101860.81;;;7.57;100.00
9325;BME280;4701;51.566;6.776;2023-02-20T13:01:00;101849.88;;;7.64;100.00
9325;BME280;4701;51.566;6.776;2023-02-20T13:03:08;101847.19;;;7.64;100.00
9325;BME280;4701;51.566;6.776;2023-02-20T13:05:15;101845.31;;;7.57;100.00
9325;BME280;4701;51.566;6.776;2023-02-20T13:07:23;101863.25;;;7.65;100.00
9325;BME280;4701;51.566;6.776;2023-02-20T13:09:31;101864.88;;;7.66;100.00
9325;BME280;4701;51.566;6.776;2023-02-20T13:11:38;101865.72;;;7.67;100.00
9325;BME280;4701;51.566;6.776;2023-02-20T13:13:52;101867.84;;;7.65;100.00
9325;BME280;4701;51.566;6.776;2023-02-20T13:16:00;101871.13;;;7.73;100.00
9325;BME280;4701;51.566;6.776;2023-02-20T13:18:11;101874.41;;;7.75;100.00
9325;BME280;4701;51.566;6.776;2023-02-20T13:20:23;101873.63;;;7.68;100.00
9325;BME280;4701;51.566;6.776;2023-02-20T13:22:26;101852.16;;;7.67;100.00
9325;BME280;4701;51.566;6.776;2023-02-20T13:24:33;101871.13;;;7.73;100.00
9325;BME280;4701;51.566;6.776;2023-02-20T13:26:46;101891.94;;;7.79;100.00
9325;BME280;4701;51.566;6.776;2023-02-20T13:28:48;101889.72;;;7.70;100.00
9325;BME280;4701;51.566;6.776;2023-02-20T13:31:09;101880.31;;;7.72;100.00
9325;BME280;4701;51.566;6.776;2023-02-20T13:33:17;101867.94;;;7.76;100.00
9325;BME280;4701;51.566;6.776;2023-02-20T13:35:37;101865.69;;;7.73;100.00
9325;BME280;4701;51.566;6.776;2023-02-20T13:37:52;101867.56;;;7.73;100.00
9325;BME280;4701;51.566;6.776;2023-02-20T13:39:54;101854.84;;;7.73;100.00
9325;BME280;4701;51.566;6.776;2023-02-20T13:41:56;101862.56;;;7.70;100.00
9325;BME280;4701;51.566;6.776;2023-02-20T13:44:40;101854.00;;;7.73;100.00
9325;BME280;4701;51.566;6.776;2023-02-20T13:46:57;101860.25;;;7.73;100.00
9325;BME280;4701;51.566;6.776;2023-02-20T13:48:59;101863.00;;;7.67;100.00
9325;BME280;4701;51.566;6.776;2023-02-20T13:51:30;101855.25;;;7.70;100.00
9325;BME280;4701;51.566;6.776;2023-02-20T13:53:32;101838.38;;;7.68;100.00
9325;BME280;4701;51.566;6.776;2023-02-20T13:55:34;101851.94;;;7.68;100.00
9325;BME280;4701;51.566;6.776;2023-02-20T13:57:42;101836.09;;;7.65;100.00
9325;BME280;4701;51.566;6.776;2023-02-20T13:59:47;101843.34;;;7.71;100.00
9325;BME280;4701;51.566;6.776;2023-02-20T14:02:13;101841.63;;;7.77;100.00
9325;BME280;4701;51.566;6.776;2023-02-20T14:04:19;101847.13;;;7.70;100.00
9325;BME280;4701;51.566;6.776;2023-02-20T14:06:21;101843.16;;;7.73;100.00
9325;BME280;4701;51.566;6.776;2023-02-20T14:08:23;101839.38;;;7.74;100.00
9325;BME280;4701;51.566;6.776;2023-02-20T14:10:30;101832.03;;;7.74;100.00
9325;BME280;4701;51.566;6.776;2023-02-20T14:12:33;101830.84;;;7.70;100.00
9325;BME280;4701;51.566;6.776;2023-02-20T14:14:37;101823.09;;;7.74;100.00
9325;BME280;4701;51.566;6.776;2023-02-20T14:16:42;101823.91;;;7.74;100.00
9325;BME280;4701;51.566;6.776;2023-02-20T14:18:45;101826.84;;;7.73;100.00
9325;BME280;4701;51.566;6.776;2023-02-20T14:20:48;101822.06;;;7.68;100.00
9325;BME280;4701;51.566;6.776;2023-02-20T14:23:08;101816.00;;;7.73;100.00
9325;BME280;4701;51.566;6.776;2023-02-20T14:25:25;101814.72;;;7.75;100.00
9325;BME280;4701;51.566;6.776;2023-02-20T14:27:31;101810.72;;;7.78;100.00
9325;BME280;4701;51.566;6.776;2023-02-20T14:29:33;101804.09;;;7.74;100.00
9325;BME280;4701;51.566;6.776;2023-02-20T14:31:37;101806.34;;;7.77;100.00
9325;BME280;4701;51.566;6.776;2023-02-20T14:33:39;101812.53;;;7.84;100.00
9325;BME280;4701;51.566;6.776;2023-02-20T14:38:25;101807.13;;;7.84;100.00
9325;BME280;4701;51.566;6.776;2023-02-20T14:40:36;101800.28;;;7.81;100.00
9325;BME280;4701;51.566;6.776;2023-02-20T14:42:43;101797.09;;;7.84;100.00
9325;BME280;4701;51.566;6.776;2023-02-20T14:44:47;101796.66;;;7.87;100.00
9325;BME280;4701;51.566;6.776;2023-02-20T14:46:51;101798.09;;;7.90;100.00
9325;BME280;4701;51.566;6.776;2023-02-20T14:49:05;101791.63;;;7.91;100.00
9325;BME280;4701;51.566;6.776;2023-02-20T14:51:14;101791.22;;;7.87;100.00
9325;BME280;4701;51.566;6.776;2023-02-20T14:53:19;101795.13;;;7.91;100.00
9325;BME280;4701;51.566;6.776;2023-02-20T14:55:24;101788.31;;;7.89;100.00
9325;BME280;4701;51.566;6.776;2023-02-20T14:57:26;101790.63;;;7.85;100.00
9325;BME280;4701;51.566;6.776;2023-02-20T14:59:31;101782.78;;;7.95;100.00
9325;BME280;4701;51.566;6.776;2023-02-20T15:01:37;101789.72;;;7.91;100.00
9325;BME280;4701;51.566;6.776;2023-02-20T15:03:39;101778.09;;;7.84;100.00
9325;BME280;4701;51.566;6.776;2023-02-20T15:05:41;101773.91;;;7.88;100.00
9325;BME280;4701;51.566;6.776;2023-02-20T15:07:45;101774.13;;;7.87;100.00
9325;BME280;4701;51.566;6.776;2023-02-20T15:09:53;101783.84;;;7.94;100.00
9325;BME280;4701;51.566;6.776;2023-02-20T15:11:56;101789.06;;;7.96;100.00
9325;BME280;4701;51.566;6.776;2023-02-20T15:14:00;101794.09;;;7.92;100.00
9325;BME280;4701;51.566;6.776;2023-02-20T15:16:06;101786.41;;;7.89;100.00
9325;BME280;4701;51.566;6.776;2023-02-20T15:18:15;101795.75;;;7.93;100.00
9325;BME280;4701;51.566;6.776;2023-02-20T15:20:18;101787.53;;;8.00;100.00
9325;BME280;4701;51.566;6.776;2023-02-20T15:22:23;101786.34;;;7.96;100.00
9325;BME280;4701;51.566;6.776;2023-02-20T15:24:35;101781.75;;;7.96;100.00
9325;BME280;4701;51.566;6.776;2023-02-20T15:26:39;101780.38;;;7.87;100.00
9325;BME280;4701;51.566;6.776;2023-02-20T15:28:44;101773.00;;;7.94;100.00
9325;BME280;4701;51.566;6.776;2023-02-20T15:31:13;101773.75;;;8.02;100.00
9325;BME280;4701;51.566;6.776;2023-02-20T15:33:20;101778.56;;;7.99;100.00
9325;BME280;4701;51.566;6.776;2023-02-20T15:35:25;101780.53;;;7.92;100.00
9325;BME280;4701;51.566;6.776;2023-02-20T15:37:29;101788.56;;;8.06;100.00
9325;BME280;4701;51.566;6.776;2023-02-20T15:39:38;101788.16;;;8.02;100.00
9325;BME280;4701;51.566;6.776;2023-02-20T15:41:41;101780.75;;;8.09;100.00
9325;BME280;4701;51.566;6.776;2023-02-20T15:43:43;101781.88;;;8.02;100.00
9325;BME280;4701;51.566;6.776;2023-02-20T15:45:45;101792.59;;;7.96;100.00
9325;BME280;4701;51.566;6.776;2023-02-20T15:47:47;101791.09;;;8.01;100.00
9325;BME280;4701;51.566;6.776;2023-02-20T15:49:50;101792.38;;;7.98;100.00
9325;BME280;4701;51.566;6.776;2023-02-20T15:51:52;101789.44;;;7.99;100.00
9325;BME280;4701;51.566;6.776;2023-02-20T15:53:55;101786.72;;;7.99;100.00
9325;BME280;4701;51.566;6.776;2023-02-20T15:55:59;101791.91;;;8.01;100.00
9325;BME280;4701;51.566;6.776;2023-02-20T15:58:08;101791.91;;;8.01;100.00
9325;BME280;4701;51.566;6.776;2023-02-20T16:00:25;101791.16;;;7.94;100.00
9325;BME280;4701;51.566;6.776;2023-02-20T16:02:28;101795.53;;;7.95;100.00
9325;BME280;4701;51.566;6.776;2023-02-20T16:04:29;101787.00;;;7.91;100.00
9325;BME280;4701;51.566;6.776;2023-02-20T16:06:31;101775.34;;;7.91;100.00
9325;BME280;4701;51.566;6.776;2023-02-20T16:08:33;101779.69;;;7.92;100.00
9325;BME280;4701;51.566;6.776;2023-02-20T16:10:35;101771.94;;;7.95;100.00
9325;BME280;4701;51.566;6.776;2023-02-20T16:12:37;101774.56;;;8.02;100.00
9325;BME280;4701;51.566;6.776;2023-02-20T16:14:40;101778.75;;;8.05;100.00
9325;BME280;4701;51.566;6.776;2023-02-20T16:16:44;101780.63;;;8.04;100.00
9325;BME280;4701;51.566;6.776;2023-02-20T16:18:46;101791.09;;;8.01;100.00
9325;BME280;4701;51.566;6.776;2023-02-20T16:20:50;101788.38;;;8.01;100.00
9325;BME280;4701;51.566;6.776;2023-02-20T16:22:52;101792.69;;;8.08;100.00
9325;BME280;4701;51.566;6.776;2023-02-20T16:24:54;101793.28;;;8.10;100.00
9325;BME280;4701;51.566;6.776;2023-02-20T16:26:55;101806.25;;;8.08;100.00
9325;BME280;4701;51.566;6.776;2023-02-20T16:28:59;101808.16;;;8.08;100.00
9325;BME280;4701;51.566;6.776;2023-02-20T16:31:03;101809.22;;;8.07;100.00
9325;BME280;4701;51.566;6.776;2023-02-20T16:33:11;101797.97;;;8.03;100.00
9325;BME280;4701;51.566;6.776;2023-02-20T16:35:13;101800.47;;;8.05;100.00
9325;BME280;4701;51.566;6.776;2023-02-20T16:37:16;101799.41;;;8.06;100.00
9325;BME280;4701;51.566;6.776;2023-02-20T16:39:18;101796.06;;;8.04;100.00
9325;BME280;4701;51.566;6.776;2023-02-20T16:41:19;101796.28;;;8.02;100.00
9325;BME280;4701;51.566;6.776;2023-02-20T16:43:22;101790.03;;;8.02;100.00
9325;BME280;4701;51.566;6.776;2023-02-20T16:45:24;101798.78;;;8.04;100.00
9325;BME280;4701;51.566;6.776;2023-02-20T16:47:29;101785.44;;;8.02;100.00
9325;BME280;4701;51.566;6.776;2023-02-20T16:49:31;101792.75;;;8.02;100.00
9325;BME280;4701;51.566;6.776;2023-02-20T16:51:36;101794.19;;;8.04;100.00
9325;BME280;4701;51.566;6.776;2023-02-20T16:53:38;101786.34;;;7.96;100.00
9325;BME280;4701;51.566;6.776;2023-02-20T16:55:40;101797.13;;;8.03;100.00
9325;BME280;4701;51.566;6.776;2023-02-20T16:57:43;101796.91;;;8.04;100.00
9325;BME280;4701;51.566;6.776;2023-02-20T16:59:45;101794.81;;;8.06;100.00
9325;BME280;4701;51.566;6.776;2023-02-20T17:01:48;101796.84;;;8.11;100.00
9325;BME280;4701;51.566;6.776;2023-02-20T17:03:52;101804.91;;;7.99;100.00
9325;BME280;4701;51.566;6.776;2023-02-20T17:05:54;101799.63;;;8.04;100.00
9325;BME280;4701;51.566;6.776;2023-02-20T17:07:59;101799.63;;;8.04;100.00
9325;BME280;4701;51.566;6.776;2023-02-20T17:10:02;101788.34;;;8.07;100.00
9325;BME280;4701;51.566;6.776;2023-02-20T17:12:05;101788.16;;;8.02;100.00
9325;BME280;4701;51.566;6.776;2023-02-20T17:14:06;101793.75;;;8.07;100.00
9325;BME280;4701;51.566;6.776;2023-02-20T17:16:08;101790.13;;;8.13;100.00
9325;BME280;4701;51.566;6.776;2023-02-20T17:18:10;101792.94;;;8.07;100.00
9325;BME280;4701;51.566;6.776;2023-02-20T17:20:15;101793.16;;;8.05;100.00
9325;BME280;4701;51.566;6.776;2023-02-20T17:22:18;101795.25;;;8.03;100.00
9325;BME280;4701;51.566;6.776;2023-02-20T17:24:20;101806.53;;;8.00;100.00
9325;BME280;4701;51.566;6.776;2023-02-20T17:26:22;101806.53;;;8.00;100.00
9325;BME280;4701;51.566;6.776;2023-02-20T17:28:26;101808.97;;;8.08;100.00
9325;BME280;4701;51.566;6.776;2023-02-20T17:30:27;101809.50;;;7.98;100.00
9325;BME280;4701;51.566;6.776;2023-02-20T17:32:29;101801.94;;;8.01;100.00
9325;BME280;4701;51.566;6.776;2023-02-20T17:34:31;101814.88;;;8.05;100.00
9325;BME280;4701;51.566;6.776;2023-02-20T17:36:34;101816.97;;;8.03;100.00
9325;BME280;4701;51.566;6.776;2023-02-20T17:38:40;101814.88;;;8.05;100.00
9325;BME280;4701;51.566;6.776;2023-02-20T17:40:42;101824.72;;;7.99;100.00
9325;BME280;4701;51.566;6.776;2023-02-20T17:42:44;101815.09;;;8.04;100.00
9325;BME280;4701;51.566;6.776;2023-02-20T17:44:45;101806.72;;;8.05;100.00
9325;BME280;4701;51.566;6.776;2023-02-20T17:46:50;101813.34;;;8.09;100.00
9325;BME280;4701;51.566;6.776;2023-02-20T17:48:52;101810.41;;;8.11;100.00
9325;BME280;4701;51.566;6.776;2023-02-20T17:50:54;101809.44;;;8.05;100.00
9325;BME280;4701;51.566;6.776;2023-02-20T17:52:57;101813.41;;;8.03;100.00
9325;BME280;4701;51.566;6.776;2023-02-20T17:54:58;101808.94;;;8.15;100.00
9325;BME280;4701;51.566;6.776;2023-02-20T17:57:01;101809.44;;;8.05;100.00
9325;BME280;4701;51.566;6.776;2023-02-20T17:59:02;101813.59;;;8.08;100.00
9325;BME280;4701;51.566;6.776;2023-02-20T18:01:04;101812.75;;;8.07;100.00
9325;BME280;4701;51.566;6.776;2023-02-20T18:03:06;101814.41;;;8.08;100.00
9325;BME280;4701;51.566;6.776;2023-02-20T18:05:08;101817.41;;;8.00;100.00
9325;BME280;4701;51.566;6.776;2023-02-20T18:07:11;101808.91;;;7.96;100.00
9325;BME280;4701;51.566;6.776;2023-02-20T18:09:16;101803.59;;;8.02;100.00
9325;BME280;4701;51.566;6.776;2023-02-20T18:11:18;101806.31;;;8.02;100.00
9325;BME280;4701;51.566;6.776;2023-02-20T18:13:20;101815.31;;;8.02;100.00
9325;BME280;4701;51.566;6.776;2023-02-20T18:15:22;101817.88;;;7.97;100.00
9325;BME280;4701;51.566;6.776;2023-02-20T18:17:24;101818.69;;;7.97;100.00
9325;BME280;4701;51.566;6.776;2023-02-20T18:19:26;101816.56;;;7.99;100.00
9325;BME280;4701;51.566;6.776;2023-02-20T18:21:29;101811.38;;;7.98;100.00